Time;durP1;ratioP1;P1;durP2;ratioP2;P2;SDS_P1;SDS_P2;PMS_P1;PMS_P2;Temp;Humidity;BMP_temperature;BMP_pressure;BME280_temperature;BME280_humidity;BME280_pressure;Samples;Min_cycle;Max_cycle;Signal;HPM_P1;HPM_P2
2023/09/20 00:00:12;;;;;;;;;;;;;;;-144.99;100.00;52350.25;5002537;28;20267;-63
2023/09/20 00:02:40;;;;;;;;;;;;;;;-144.99;100.00;52362.50;5006085;28;19950;-67
2023/09/20 00:05:12;;;;;;;;;;;;;;;-144.99;100.00;52366.56;5003639;28;20003;-70
2023/09/20 00:07:39;;;;;;;;;;;;;;;-144.99;100.00;52374.72;5008580;28;19973;-71
2023/09/20 00:10:11;;;;;;;;;;;;;;;-144.99;100.00;52350.25;5009450;28;20262;-71
2023/09/20 00:12:39;;;;;;;;;;;;;;;-144.99;100.00;52346.19;5000470;28;19968;-72
2023/09/20 00:15:07;;;;;;;;;;;;;;;-144.99;100.00;52366.56;5006664;28;19982;-73
2023/09/20 00:17:34;;;;;;;;;;;;;;;-144.99;100.00;52348.22;5007741;28;20051;-72
2023/09/20 00:20:10;;;;;;;;;;;;;;;-144.99;100.00;52346.19;5008317;28;19957;-72
2023/09/20 00:22:37;;;;;;;;;;;;;;;-144.99;100.00;52378.78;5005719;28;19942;-72
2023/09/20 00:25:04;;;;;;;;;;;;;;;-144.99;100.00;52376.75;5008604;28;20074;-72
2023/09/20 00:27:33;;;;;;;;;;;;;;;-144.99;100.00;52350.25;5000296;28;19952;-73
2023/09/20 00:30:00;;;;;;;;;;;;;;;-144.99;100.00;52362.50;5008578;28;19982;-73
2023/09/20 00:32:27;;;;;;;;;;;;;;;-144.99;100.00;52342.09;5006380;28;19988;-73
2023/09/20 00:34:54;;;;;;;;;;;;;;;-144.99;100.00;52342.09;5004013;28;20192;-73
2023/09/20 00:37:20;;;;;;;;;;;;;;;-144.99;100.00;52342.09;5010031;28;20007;-63
2023/09/20 00:39:47;;;;;;;;;;;;;;;-144.99;100.00;52388.97;5007175;28;19958;-62
2023/09/20 00:42:14;;;;;;;;;;;;;;;-144.99;100.00;52378.78;4995261;28;20003;-63
2023/09/20 00:44:40;;;;;;;;;;;;;;;-144.99;100.00;52374.72;5004196;28;19965;-63
2023/09/20 00:47:11;;;;;;;;;;;;;;;-144.99;100.00;52356.38;5001870;28;19973;-63
2023/09/20 00:49:38;;;;;;;;;;;;;;;-144.99;100.00;52388.97;5005600;28;20017;-63
2023/09/20 00:52:07;;;;;;;;;;;;;;;-144.99;100.00;52370.63;5002757;28;19972;-62
2023/09/20 00:54:33;;;;;;;;;;;;;;;-144.99;100.00;52378.78;5003370;28;20109;-62
2023/09/20 00:57:00;;;;;;;;;;;;;;;-144.99;100.00;52354.34;5008136;28;19950;-63
2023/09/20 00:59:27;;;;;;;;;;;;;;;-144.99;100.00;52358.41;5007251;28;20017;-63
2023/09/20 01:01:54;;;;;;;;;;;;;;;-144.99;100.00;52338.03;4999470;28;19955;-64
2023/09/20 01:04:22;;;;;;;;;;;;;;;-144.99;100.00;52354.34;5004032;28;20028;-64
2023/09/20 01:06:49;;;;;;;;;;;;;;;-144.99;100.00;52380.84;5002200;28;20009;-65
2023/09/20 01:09:16;;;;;;;;;;;;;;;-144.99;100.00;52354.34;5008296;28;20341;-64
2023/09/20 01:11:43;;;;;;;;;;;;;;;-144.99;100.00;52370.63;4999910;28;19952;-64
2023/09/20 01:14:10;;;;;;;;;;;;;;;-144.99;100.00;52370.63;5005968;28;20007;-64
2023/09/20 01:16:37;;;;;;;;;;;;;;;-144.99;100.00;52370.63;5005886;28;20033;-66
2023/09/20 01:19:06;;;;;;;;;;;;;;;-144.99;100.00;52358.41;5004976;28;20000;-67
2023/09/20 01:21:40;;;;;;;;;;;;;;;-144.99;100.00;52360.44;4982496;28;19950;-66
2023/09/20 01:24:07;;;;;;;;;;;;;;;-144.99;100.00;52384.91;5005492;28;19993;-63
2023/09/20 01:26:34;;;;;;;;;;;;;;;-144.99;100.00;52350.25;4992947;28;20485;-66
2023/09/20 01:29:00;;;;;;;;;;;;;;;-144.99;100.00;52350.25;5002144;28;20392;-62
2023/09/20 01:31:27;;;;;;;;;;;;;;;-144.99;100.00;52366.56;5005791;28;20388;-62
2023/09/20 01:33:54;;;;;;;;;;;;;;;-144.99;100.00;52366.56;5005767;28;19941;-62
2023/09/20 01:36:21;;;;;;;;;;;;;;;-144.99;100.00;52374.72;5011916;28;20373;-62
2023/09/20 01:38:48;;;;;;;;;;;;;;;-144.99;100.00;52391.03;4995601;28;20034;-62
2023/09/20 01:41:15;;;;;;;;;;;;;;;-144.99;100.00;52338.03;4990091;28;20468;-62
2023/09/20 01:43:43;;;;;;;;;;;;;;;-144.99;100.00;52374.72;5000332;28;20485;-62
2023/09/20 01:46:10;;;;;;;;;;;;;;;-144.99;100.00;52362.50;5011578;28;19959;-62
2023/09/20 01:48:37;;;;;;;;;;;;;;;-144.99;100.00;52370.63;5009468;28;19955;-62
2023/09/20 01:51:03;;;;;;;;;;;;;;;-144.99;100.00;52333.94;5001249;28;19943;-63
2023/09/20 01:53:30;;;;;;;;;;;;;;;-144.99;100.00;52374.72;5009829;28;19998;-62
2023/09/20 01:56:00;;;;;;;;;;;;;;;-144.99;100.00;52350.25;5007637;28;20392;-63
2023/09/20 01:58:26;;;;;;;;;;;;;;;-144.99;100.00;52391.03;5003404;28;19945;-59
2023/09/20 02:00:53;;;;;;;;;;;;;;;-144.99;100.00;52374.72;5004499;28;20036;-59
2023/09/20 02:03:19;;;;;;;;;;;;;;;-144.99;100.00;52382.88;5010836;28;20416;-59
2023/09/20 02:05:47;;;;;;;;;;;;;;;-144.99;100.00;52358.41;5009623;28;19997;-59
2023/09/20 02:08:14;;;;;;;;;;;;;;;-144.99;100.00;52360.44;5003571;28;19948;-59
2023/09/20 02:10:41;;;;;;;;;;;;;;;-144.99;100.00;52360.44;5003850;28;20002;-59
2023/09/20 02:13:09;;;;;;;;;;;;;;;-144.99;100.00;52374.72;5000601;28;19959;-59
2023/09/20 02:15:36;;;;;;;;;;;;;;;-144.99;100.00;52370.63;5009222;28;20421;-68
2023/09/20 02:18:06;;;;;;;;;;;;;;;-144.99;100.00;52395.09;5010505;28;20017;-69
2023/09/20 02:20:34;;;;;;;;;;;;;;;-144.99;100.00;52382.88;5012207;28;20410;-68
2023/09/20 02:23:01;;;;;;;;;;;;;;;-144.99;100.00;52366.56;5006485;28;19997;-68
2023/09/20 02:25:28;;;;;;;;;;;;;;;-144.99;100.00;52333.94;5008334;28;20022;-69
2023/09/20 02:27:57;;;;;;;;;;;;;;;-144.99;100.00;52370.63;5004424;28;19945;-69
2023/09/20 02:30:28;;;;;;;;;;;;;;;-144.99;100.00;52362.50;5007680;28;20012;-69
2023/09/20 02:32:55;;;;;;;;;;;;;;;-144.99;100.00;52344.16;5010295;28;19943;-69
2023/09/20 02:35:21;;;;;;;;;;;;;;;-144.99;100.00;52358.41;5011451;28;19950;-59
2023/09/20 02:37:49;;;;;;;;;;;;;;;-144.99;100.00;52370.63;5008946;28;20026;-59
2023/09/20 02:40:17;;;;;;;;;;;;;;;-144.99;100.00;52370.63;4992877;28;19967;-60
2023/09/20 02:42:44;;;;;;;;;;;;;;;-144.99;100.00;52384.91;5007270;28;19944;-59
2023/09/20 02:45:12;;;;;;;;;;;;;;;-144.99;100.00;52325.81;4997750;28;20054;-59
2023/09/20 02:47:40;;;;;;;;;;;;;;;-144.99;100.00;52399.19;5008220;28;19946;-60
2023/09/20 02:50:08;;;;;;;;;;;;;;;-144.99;100.00;52329.88;4998378;28;20001;-60
2023/09/20 02:52:35;;;;;;;;;;;;;;;-144.99;100.00;52342.09;5000380;28;20459;-60
2023/09/20 02:55:03;;;;;;;;;;;;;;;-144.99;100.00;52378.78;4999175;28;20317;-60
2023/09/20 02:57:30;;;;;;;;;;;;;;;-144.99;100.00;52342.09;4998416;28;19968;-60
2023/09/20 02:59:58;;;;;;;;;;;;;;;-144.99;100.00;52366.56;5008574;28;19960;-61
2023/09/20 03:02:24;;;;;;;;;;;;;;;-144.99;100.00;52362.50;5009199;28;20389;-61
2023/09/20 03:04:54;;;;;;;;;;;;;;;-144.99;100.00;52372.69;5002328;28;20072;-60
2023/09/20 03:07:21;;;;;;;;;;;;;;;-144.99;100.00;52362.50;5003731;28;19995;-59
2023/09/20 03:09:48;;;;;;;;;;;;;;;-144.99;100.00;52374.72;5008353;28;19993;-62
2023/09/20 03:12:15;;;;;;;;;;;;;;;-144.99;100.00;52364.53;5008498;28;19956;-62
2023/09/20 03:14:44;;;;;;;;;;;;;;;-144.99;100.00;52386.94;5003805;28;20016;-62
2023/09/20 03:17:12;;;;;;;;;;;;;;;-144.99;100.00;52360.44;5009688;28;19983;-62
2023/09/20 03:19:38;;;;;;;;;;;;;;;-144.99;100.00;52378.78;5007955;28;19983;-62
2023/09/20 03:22:07;;;;;;;;;;;;;;;-144.99;100.00;52354.34;5007093;28;19981;-62
2023/09/20 03:24:35;;;;;;;;;;;;;;;-144.99;100.00;52370.63;4992980;28;19949;-61
2023/09/20 03:27:02;;;;;;;;;;;;;;;-144.99;100.00;52399.19;5004541;28;20030;-61
2023/09/20 03:29:29;;;;;;;;;;;;;;;-144.99;100.00;52366.56;4997501;28;20002;-61
2023/09/20 03:31:56;;;;;;;;;;;;;;;-144.99;100.00;52370.63;5005750;28;19943;-61
2023/09/20 03:34:23;;;;;;;;;;;;;;;-144.99;100.00;52378.78;4998797;28;20421;-69
2023/09/20 03:36:50;;;;;;;;;;;;;;;-144.99;100.00;52374.72;4997864;28;19940;-68
2023/09/20 03:39:24;;;;;;;;;;;;;;;-144.99;100.00;52366.56;5008646;28;19962;-69
2023/09/20 03:41:51;;;;;;;;;;;;;;;-144.99;100.00;52399.19;5008441;28;19941;-70
2023/09/20 03:44:17;;;;;;;;;;;;;;;-144.99;100.00;52350.25;5001266;28;19993;-70
2023/09/20 03:46:44;;;;;;;;;;;;;;;-144.99;100.00;52358.41;5009067;28;20076;-61
2023/09/20 03:49:11;;;;;;;;;;;;;;;-144.99;100.00;52374.72;4995642;28;19995;-61
2023/09/20 03:51:38;;;;;;;;;;;;;;;-144.99;100.00;52386.94;5005840;28;19963;-61
2023/09/20 03:54:04;;;;;;;;;;;;;;;-144.99;100.00;52362.50;5009375;28;19991;-62
2023/09/20 03:56:32;;;;;;;;;;;;;;;-144.99;100.00;52378.78;5007301;28;20571;-62
2023/09/20 03:59:00;;;;;;;;;;;;;;;-144.99;100.00;52358.41;5004027;28;19990;-63
2023/09/20 04:01:28;;;;;;;;;;;;;;;-144.99;100.00;52403.25;5004346;28;20350;-64
2023/09/20 04:03:54;;;;;;;;;;;;;;;-144.99;100.00;52380.84;4986291;28;19998;-63
2023/09/20 04:06:23;;;;;;;;;;;;;;;-144.99;100.00;52376.75;5005040;28;20442;-61
2023/09/20 04:08:50;;;;;;;;;;;;;;;-144.99;100.00;52391.03;4998479;28;19998;-61
2023/09/20 04:11:16;;;;;;;;;;;;;;;-144.99;100.00;52350.25;5006723;28;19971;-61
2023/09/20 04:13:44;;;;;;;;;;;;;;;-144.99;100.00;52350.25;5008022;28;20068;-60
2023/09/20 04:16:10;;;;;;;;;;;;;;;-144.99;100.00;52321.72;5009086;28;19993;-64
2023/09/20 04:18:37;;;;;;;;;;;;;;;-144.99;100.00;52348.22;5003410;28;19980;-64
2023/09/20 04:21:04;;;;;;;;;;;;;;;-144.99;100.00;52374.72;4997391;28;19969;-63
2023/09/20 04:23:32;;;;;;;;;;;;;;;-144.99;100.00;52358.41;5006258;28;20044;-63
2023/09/20 04:25:58;;;;;;;;;;;;;;;-144.99;100.00;52374.72;4998598;28;20381;-64
2023/09/20 04:28:25;;;;;;;;;;;;;;;-144.99;100.00;52384.91;5007672;28;19948;-64
2023/09/20 04:30:53;;;;;;;;;;;;;;;-144.99;100.00;52378.78;5008296;28;19967;-64
2023/09/20 04:33:20;;;;;;;;;;;;;;;-144.99;100.00;52370.63;5005625;28;19948;-64
2023/09/20 04:35:47;;;;;;;;;;;;;;;-144.99;100.00;52358.41;5007115;28;20063;-64
2023/09/20 04:38:15;;;;;;;;;;;;;;;-144.99;100.00;52342.09;4995927;28;19942;-64
2023/09/20 04:40:41;;;;;;;;;;;;;;;-144.99;100.00;52340.06;5007133;28;19955;-65
2023/09/20 04:43:08;;;;;;;;;;;;;;;-144.99;100.00;52403.25;5005654;28;20023;-65
2023/09/20 04:45:34;;;;;;;;;;;;;;;-144.99;100.00;52378.78;5000166;28;19943;-66
2023/09/20 04:48:06;;;;;;;;;;;;;;;-144.99;100.00;52325.81;5008334;28;20387;-65
2023/09/20 04:50:33;;;;;;;;;;;;;;;-144.99;100.00;52362.50;5004416;28;19963;-65
2023/09/20 04:52:59;;;;;;;;;;;;;;;-144.99;100.00;52378.78;5003092;28;20442;-65
2023/09/20 04:55:27;;;;;;;;;;;;;;;-144.99;100.00;52370.63;5002107;28;19954;-66
2023/09/20 04:57:53;;;;;;;;;;;;;;;-144.99;100.00;52338.03;5001067;28;19944;-66
2023/09/20 05:00:26;;;;;;;;;;;;;;;-144.99;100.00;52378.78;5012198;28;19963;-65
2023/09/20 05:02:52;;;;;;;;;;;;;;;-144.99;100.00;52323.75;5008981;28;19952;-65
2023/09/20 05:05:23;;;;;;;;;;;;;;;-144.99;100.00;52391.03;5007402;28;20327;-65
2023/09/20 05:07:51;;;;;;;;;;;;;;;-144.99;100.00;52360.44;5007998;28;19957;-66
2023/09/20 05:10:18;;;;;;;;;;;;;;;-144.99;100.00;52360.44;5007882;28;19979;-65
2023/09/20 05:12:47;;;;;;;;;;;;;;;-144.99;100.00;52403.25;5010400;28;19938;-65
2023/09/20 05:15:15;;;;;;;;;;;;;;;-144.99;100.00;52360.44;5008648;28;19950;-66
2023/09/20 05:17:43;;;;;;;;;;;;;;;-144.99;100.00;52354.34;5011156;28;19940;-65
2023/09/20 05:20:11;;;;;;;;;;;;;;;-144.99;100.00;52362.50;5010475;28;19957;-65
2023/09/20 05:22:39;;;;;;;;;;;;;;;-144.99;100.00;52342.09;4995082;28;19943;-68
2023/09/20 05:25:07;;;;;;;;;;;;;;;-144.99;100.00;52391.03;4318397;28;10020734;-68
2023/09/20 05:27:33;;;;;;;;;;;;;;;-144.99;100.00;52370.63;5006913;28;20429;-68
2023/09/20 05:30:00;;;;;;;;;;;;;;;-144.99;100.00;52362.50;5008921;28;19990;-67
2023/09/20 05:32:27;;;;;;;;;;;;;;;-144.99;100.00;52378.78;5008733;28;19957;-68
2023/09/20 05:34:53;;;;;;;;;;;;;;;-144.99;100.00;52368.59;5009225;28;19948;-68
2023/09/20 05:37:20;;;;;;;;;;;;;;;-144.99;100.00;52370.63;5007539;28;20018;-68
2023/09/20 05:39:49;;;;;;;;;;;;;;;-144.99;100.00;52386.94;5010415;28;20025;-68
2023/09/20 05:42:16;;;;;;;;;;;;;;;-144.99;100.00;52366.56;5010242;28;19947;-67
2023/09/20 05:44:42;;;;;;;;;;;;;;;-144.99;100.00;52378.78;5010800;28;20038;-67
2023/09/20 05:47:09;;;;;;;;;;;;;;;-144.99;100.00;52346.19;5005354;28;20695;-67
2023/09/20 05:49:36;;;;;;;;;;;;;;;-144.99;100.00;52333.94;5010295;28;20093;-67
2023/09/20 05:52:06;;;;;;;;;;;;;;;-144.99;100.00;52346.19;5013191;28;19988;-67
2023/09/20 05:54:32;;;;;;;;;;;;;;;-144.99;100.00;52391.03;5009911;28;20498;-67
2023/09/20 05:57:00;;;;;;;;;;;;;;;-144.99;100.00;52374.72;5007043;28;20027;-67
2023/09/20 05:59:28;;;;;;;;;;;;;;;-144.99;100.00;52362.50;5008909;28;20495;-67
2023/09/20 06:01:54;;;;;;;;;;;;;;;-144.99;100.00;52338.03;5005629;28;20033;-69
2023/09/20 06:04:20;;;;;;;;;;;;;;;-144.99;100.00;52342.09;5009084;28;19950;-69
2023/09/20 06:06:47;;;;;;;;;;;;;;;-144.99;100.00;52350.25;5010275;28;20000;-71
2023/09/20 06:09:15;;;;;;;;;;;;;;;-144.99;100.00;52358.41;5005008;28;20432;-70
2023/09/20 06:11:42;;;;;;;;;;;;;;;-144.99;100.00;52346.19;5010496;28;19982;-72
2023/09/20 06:14:10;;;;;;;;;;;;;;;-144.99;100.00;52370.63;5010703;28;20432;-71
2023/09/20 06:16:36;;;;;;;;;;;;;;;-144.99;100.00;52368.59;5008975;28;20295;-74
2023/09/20 06:19:02;;;;;;;;;;;;;;;-144.99;100.00;52374.72;5010788;28;19960;-71
2023/09/20 06:21:31;;;;;;;;;;;;;;;-144.99;100.00;52378.78;5011284;28;20036;-73
2023/09/20 06:23:57;;;;;;;;;;;;;;;-144.99;100.00;52342.09;5011441;28;19939;-70
2023/09/20 06:26:24;;;;;;;;;;;;;;;-144.99;100.00;52358.41;5009724;28;19966;-71
2023/09/20 06:28:50;;;;;;;;;;;;;;;-144.99;100.00;52378.78;5010292;28;20056;-70
2023/09/20 06:31:18;;;;;;;;;;;;;;;-144.99;100.00;52358.41;5009801;28;20018;-69
2023/09/20 06:33:46;;;;;;;;;;;;;;;-144.99;100.00;52342.09;5007803;28;20035;-70
2023/09/20 06:36:16;;;;;;;;;;;;;;;-144.99;100.00;52346.19;5010308;28;19949;-72
2023/09/20 06:38:43;;;;;;;;;;;;;;;-144.99;100.00;52386.94;5010118;28;19996;-69
2023/09/20 06:41:10;;;;;;;;;;;;;;;-144.99;100.00;52362.50;5009509;28;20041;-72
2023/09/20 06:43:37;;;;;;;;;;;;;;;-144.99;100.00;52391.03;5010775;28;19943;-69
2023/09/20 06:46:06;;;;;;;;;;;;;;;-144.99;100.00;52358.41;5010695;28;20257;-73
2023/09/20 06:48:34;;;;;;;;;;;;;;;-144.99;100.00;52342.09;5009589;28;19963;-69
2023/09/20 06:51:01;;;;;;;;;;;;;;;-144.99;100.00;52362.50;5009094;28;19987;-70
2023/09/20 06:53:27;;;;;;;;;;;;;;;-144.99;100.00;52350.25;5007974;28;20010;-72
2023/09/20 06:55:54;;;;;;;;;;;;;;;-144.99;100.00;52391.03;5006798;28;20063;-71
2023/09/20 06:58:23;;;;;;;;;;;;;;;-144.99;100.00;52399.19;5009248;28;19947;-72
2023/09/20 07:00:50;;;;;;;;;;;;;;;-144.99;100.00;52354.34;5010738;28;19948;-69
2023/09/20 07:03:17;;;;;;;;;;;;;;;-144.99;100.00;52378.78;5009920;28;20038;-69
2023/09/20 07:05:46;;;;;;;;;;;;;;;-144.99;100.00;52346.19;4665264;28;10000277;-70
2023/09/20 07:08:12;;;;;;;;;;;;;;;-144.99;100.00;52329.88;5010432;28;19958;-69
2023/09/20 07:10:41;;;;;;;;;;;;;;;-144.99;100.00;52329.88;5009871;28;19993;-68
2023/09/20 07:13:09;;;;;;;;;;;;;;;-144.99;100.00;52350.25;5008220;28;20009;-73
2023/09/20 07:15:36;;;;;;;;;;;;;;;-144.99;100.00;52360.44;5002257;28;20106;-70
2023/09/20 07:18:11;;;;;;;;;;;;;;;-144.99;100.00;52378.78;5009721;28;19952;-69
2023/09/20 07:20:39;;;;;;;;;;;;;;;-144.99;100.00;52321.72;5007307;28;20718;-71
2023/09/20 07:23:08;;;;;;;;;;;;;;;-144.99;100.00;52317.66;5006303;28;19969;-69
2023/09/20 07:25:35;;;;;;;;;;;;;;;-144.99;99.79;52374.72;5009668;28;19950;-70
2023/09/20 07:28:04;;;;;;;;;;;;;;;-144.99;99.82;52350.25;5009639;28;19959;-70
2023/09/20 07:30:34;;;;;;;;;;;;;;;-144.99;99.38;52346.19;5010121;28;20587;-69
2023/09/20 07:33:02;;;;;;;;;;;;;;;-144.99;99.57;52323.75;5009053;28;19968;-71
2023/09/20 07:35:37;;;;;;;;;;;;;;;-144.99;99.58;52342.09;5009760;28;19946;-68
2023/09/20 07:38:04;;;;;;;;;;;;;;;-144.99;99.57;52350.25;5010793;28;19948;-68
2023/09/20 07:40:33;;;;;;;;;;;;;;;-144.99;99.06;52360.44;5009384;28;20052;-69
2023/09/20 07:43:03;;;;;;;;;;;;;;;-144.99;99.20;52366.56;5009196;28;19955;-68
2023/09/20 07:45:37;;;;;;;;;;;;;;;-144.99;98.77;52342.09;5007028;28;20039;-71
2023/09/20 07:48:06;;;;;;;;;;;;;;;-144.99;98.12;52384.91;5009138;28;19963;-68
2023/09/20 07:50:40;;;;;;;;;;;;;;;-144.99;97.83;52358.41;5000076;28;19958;-69
2023/09/20 07:53:07;;;;;;;;;;;;;;;-144.99;97.68;52338.03;5001385;28;19943;-68
2023/09/20 07:55:36;;;;;;;;;;;;;;;-144.99;97.51;52342.09;5008127;28;20011;-68
2023/09/20 07:58:02;;;;;;;;;;;;;;;-144.99;97.51;52338.03;5006955;28;19951;-72
2023/09/20 08:00:28;;;;;;;;;;;;;;;-144.99;96.98;52342.09;5008872;28;20059;-67
2023/09/20 08:02:55;;;;;;;;;;;;;;;-144.99;96.49;52329.88;5008321;28;19945;-68
2023/09/20 08:05:23;;;;;;;;;;;;;;;-144.99;95.55;52305.41;5009142;28;19943;-68
2023/09/20 08:07:49;;;;;;;;;;;;;;;-144.99;95.21;52325.81;5008545;28;19966;-69
2023/09/20 08:10:16;;;;;;;;;;;;;;;-144.99;94.08;52317.66;5009265;28;19961;-70
2023/09/20 08:12:44;;;;;;;;;;;;;;;-144.99;93.03;52319.69;5009052;28;19997;-71
2023/09/20 08:15:12;;;;;;;;;;;;;;;-144.99;92.82;52285.03;5008719;28;19951;-72
2023/09/20 08:20:23;;;;;;;;;;;;;;;-144.99;92.65;52321.72;5008339;28;20072;-70
2023/09/20 09:01:18;;;;;;;;;;;;;;;-144.99;90.84;52350.25;5006238;28;20097;-68
2023/09/20 09:03:44;;;;;;;;;;;;;;;-144.99;90.24;52321.72;5006186;28;20001;-69
2023/09/20 09:06:11;;;;;;;;;;;;;;;-144.99;89.84;52309.50;5005937;28;19955;-71
2023/09/20 09:08:38;;;;;;;;;;;;;;;-144.99;89.90;52325.81;5008809;28;20018;-69
2023/09/20 09:11:04;;;;;;;;;;;;;;;-144.99;90.02;52342.09;5008133;28;19949;-69
2023/09/20 09:13:31;;;;;;;;;;;;;;;-144.99;90.11;52305.41;5007444;28;20049;-70
2023/09/20 09:15:57;;;;;;;;;;;;;;;-144.99;89.46;52323.75;5008235;28;19999;-68
2023/09/20 09:18:25;;;;;;;;;;;;;;;-144.99;89.37;52278.91;5007731;28;20545;-72
2023/09/20 09:20:52;;;;;;;;;;;;;;;-144.99;88.72;52289.13;5008161;28;20044;-68
2023/09/20 09:23:31;;;;;;;;;;;;;;;-144.99;88.75;52289.13;5004858;28;19949;-68
2023/09/20 09:25:57;;;;;;;;;;;;;;;-144.99;88.25;52280.97;5000820;28;19951;-69
2023/09/20 09:28:25;;;;;;;;;;;;;;;-144.99;88.46;52297.25;5006944;28;19993;-74
2023/09/20 09:30:52;;;;;;;;;;;;;;;-144.99;87.92;52293.19;5006613;28;19984;-70
2023/09/20 09:33:19;;;;;;;;;;;;;;;-144.99;87.11;52256.50;5005330;28;19941;-73
2023/09/20 09:35:48;;;;;;;;;;;;;;;-144.99;86.06;52309.50;5006923;28;19968;-69
2023/09/20 09:38:20;;;;;;;;;;;;;;;-144.99;85.51;52266.69;5008040;28;20403;-71
2023/09/20 09:40:53;;;;;;;;;;;;;;;-144.99;85.17;52260.56;5007299;28;20446;-70
2023/09/20 09:43:20;;;;;;;;;;;;;;;-144.99;84.80;52276.88;4998883;28;19939;-70
2023/09/20 09:45:48;;;;;;;;;;;;;;;-144.99;84.42;52293.19;4998934;28;19970;-73
2023/09/20 09:48:16;;;;;;;;;;;;;;;-144.99;84.06;52256.50;4989481;28;19967;-70
2023/09/20 09:50:45;;;;;;;;;;;;;;;-144.99;83.26;52280.97;5008009;28;20057;-69
2023/09/20 09:53:13;;;;;;;;;;;;;;;-144.99;82.90;52236.13;5006001;28;19950;-70
2023/09/20 09:55:41;;;;;;;;;;;;;;;-144.99;82.28;52248.34;5008086;28;19946;-70
2023/09/20 09:58:09;;;;;;;;;;;;;;;-144.99;83.43;52252.44;5006035;28;19947;-71
2023/09/20 10:00:36;;;;;;;;;;;;;;;-144.99;84.40;52266.69;5011075;28;19960;-73
2023/09/20 10:03:11;;;;;;;;;;;;;;;-144.99;85.45;52297.25;5008829;28;19996;-71
2023/09/20 10:05:38;;;;;;;;;;;;;;;-144.99;85.81;52301.34;5010692;28;19956;-71
2023/09/20 10:08:07;;;;;;;;;;;;;;;-144.99;86.39;52305.41;5010300;28;19969;-70
2023/09/20 10:10:35;;;;;;;;;;;;;;;-144.99;86.02;52268.72;5010273;28;20000;-72
2023/09/20 10:13:03;;;;;;;;;;;;;;;-144.99;85.15;52276.88;5010305;28;19969;-69
2023/09/20 10:15:32;;;;;;;;;;;;;;;-144.99;84.91;52289.13;5008204;28;19992;-71
2023/09/20 10:17:59;;;;;;;;;;;;;;;-144.99;84.86;52240.19;5006670;28;19942;-70
2023/09/20 10:20:42;;;;;;;;;;;;;;;-144.99;84.71;52256.50;5009762;28;19961;-72
2023/09/20 10:23:08;;;;;;;;;;;;;;;-144.99;83.55;52238.16;5009461;28;19943;-69
2023/09/20 10:25:36;;;;;;;;;;;;;;;-144.99;82.10;52195.34;5007572;28;19984;-70
2023/09/20 10:28:03;;;;;;;;;;;;;;;-144.99;80.71;52211.66;5009588;28;19955;-73
2023/09/20 10:30:34;;;;;;;;;;;;;;;-144.99;79.89;52225.94;5009864;28;19971;-71
2023/09/20 10:33:04;;;;;;;;;;;;;;;-144.99;78.89;52260.56;5008750;28;20049;-71
2023/09/20 10:35:31;;;;;;;;;;;;;;;-144.99;79.84;52193.31;5004841;28;19944;-71
2023/09/20 10:37:59;;;;;;;;;;;;;;;-144.99;79.30;52207.59;5008720;28;20033;-70
2023/09/20 10:40:41;;;;;;;;;;;;;;;-144.99;78.67;52162.75;5009404;28;20481;-73
2023/09/20 10:43:09;;;;;;;;;;;;;;;-144.99;79.28;52260.56;5006827;28;19996;-74
2023/09/20 10:45:36;;;;;;;;;;;;;;;-144.99;80.05;52240.19;5007952;28;19950;-72
2023/09/20 10:48:05;;;;;;;;;;;;;;;-144.99;80.79;52305.41;5008238;28;20037;-70
2023/09/20 10:50:46;;;;;;;;;;;;;;;-144.99;81.67;52213.69;5008687;28;20006;-72
2023/09/20 10:53:13;;;;;;;;;;;;;;;-144.99;82.40;52272.81;5009027;28;20303;-69
2023/09/20 10:55:39;;;;;;;;;;;;;;;-144.99;83.69;52268.72;5004647;28;20317;-70
2023/09/20 10:58:07;;;;;;;;;;;;;;;-144.99;82.74;52311.53;5004272;28;20056;-75
2023/09/20 11:00:35;;;;;;;;;;;;;;;-144.99;83.12;52301.34;5009077;28;20047;-70
2023/09/20 11:03:06;;;;;;;;;;;;;;;-144.99;83.86;52291.16;5008754;28;20030;-69
2023/09/20 11:05:33;;;;;;;;;;;;;;;-144.99;84.26;52309.50;5008153;28;20385;-71
2023/09/20 11:08:03;;;;;;;;;;;;;;;-144.99;83.96;52297.25;5007072;28;20060;-70
2023/09/20 11:10:29;;;;;;;;;;;;;;;-144.99;83.66;52299.31;5007606;28;19963;-70
2023/09/20 11:12:56;;;;;;;;;;;;;;;-144.99;83.68;52236.13;5003629;28;19986;-71
2023/09/20 11:15:23;;;;;;;;;;;;;;;-144.99;83.39;52276.88;5007504;28;20574;-69
2023/09/20 11:17:51;;;;;;;;;;;;;;;-144.99;83.04;52301.34;5005151;28;20503;-73
2023/09/20 11:20:18;;;;;;;;;;;;;;;-144.99;83.51;52317.66;5006709;28;19962;-72
2023/09/20 11:22:44;;;;;;;;;;;;;;;-144.99;84.07;52321.72;5008137;28;20046;-70
2023/09/20 11:25:12;;;;;;;;;;;;;;;-144.99;84.32;52311.53;5008719;28;20424;-70
2023/09/20 11:27:38;;;;;;;;;;;;;;;-144.99;85.21;52283.00;5005612;28;20672;-72
2023/09/20 11:30:05;;;;;;;;;;;;;;;-144.99;86.12;52329.88;5008887;28;20026;-70
2023/09/20 11:32:32;;;;;;;;;;;;;;;-144.99;85.93;52317.66;5007632;28;19949;-69
2023/09/20 11:35:01;;;;;;;;;;;;;;;-144.99;85.82;52254.47;5008028;28;20081;-72
2023/09/20 11:37:30;;;;;;;;;;;;;;;-144.99;85.20;52301.34;5006380;28;19945;-70
2023/09/20 11:39:56;;;;;;;;;;;;;;;-144.99;82.65;52146.44;5007870;28;19963;-71
2023/09/20 11:42:24;;;;;;;;;;;;;;;-144.99;81.27;52285.03;5007391;28;19950;-70
2023/09/20 11:44:55;;;;;;;;;;;;;;;-144.99;81.33;52289.13;5000831;28;19937;-72
2023/09/20 11:47:21;;;;;;;;;;;;;;;-144.99;81.78;52260.56;5002674;28;20010;-70
2023/09/20 11:49:50;;;;;;;;;;;;;;;-144.99;81.45;52276.88;5007021;28;20065;-70
2023/09/20 11:52:20;;;;;;;;;;;;;;;-144.99;81.95;52270.78;5008817;28;19952;-70
2023/09/20 11:54:48;;;;;;;;;;;;;;;-144.99;81.90;52252.44;5009977;28;19942;-71
2023/09/20 11:57:16;;;;;;;;;;;;;;;-144.99;81.35;52105.69;5004704;28;19952;-70
2023/09/20 11:59:43;;;;;;;;;;;;;;;-144.99;79.65;52293.19;5002831;28;19961;-71
2023/09/20 12:02:12;;;;;;;;;;;;;;;-144.99;79.85;52297.25;5006292;28;19958;-70
2023/09/20 12:04:38;;;;;;;;;;;;;;;-144.99;80.13;52272.81;5007362;28;19993;-70
2023/09/20 12:07:07;;;;;;;;;;;;;;;-144.99;80.54;52272.81;5007375;28;19942;-74
2023/09/20 12:09:36;;;;;;;;;;;;;;;-144.99;80.74;52293.19;4987168;28;20043;-70
2023/09/20 12:12:04;;;;;;;;;;;;;;;-144.99;81.30;52276.88;5007571;28;20031;-71
2023/09/20 12:14:32;;;;;;;;;;;;;;;-144.99;81.34;52260.56;5006581;28;20005;-71
2023/09/20 12:16:59;;;;;;;;;;;;;;;-144.99;81.92;52280.97;5007370;28;19949;-71
2023/09/20 12:19:25;;;;;;;;;;;;;;;-144.99;81.45;52285.03;5002661;28;20071;-71
2023/09/20 12:21:51;;;;;;;;;;;;;;;-144.99;82.11;52287.06;5005239;28;20043;-70
2023/09/20 12:24:18;;;;;;;;;;;;;;;-144.99;81.80;52289.13;5006312;28;19946;-70
2023/09/20 12:26:46;;;;;;;;;;;;;;;-144.99;82.12;52283.00;5005604;28;20414;-69
2023/09/20 12:29:12;;;;;;;;;;;;;;;-144.99;81.53;52256.50;5005843;28;19967;-71
2023/09/20 12:31:39;;;;;;;;;;;;;;;-144.99;80.89;52276.88;5006129;28;19943;-71
2023/09/20 12:34:06;;;;;;;;;;;;;;;-144.99;80.11;52276.88;5004993;28;19994;-71
2023/09/20 12:36:33;;;;;;;;;;;;;;;-144.99;79.61;52276.88;5007034;28;19955;-70
2023/09/20 12:39:02;;;;;;;;;;;;;;;-144.99;79.41;52299.31;5006532;28;19969;-70
2023/09/20 12:41:29;;;;;;;;;;;;;;;-144.99;78.80;52238.16;5006215;28;19989;-71
2023/09/20 12:43:57;;;;;;;;;;;;;;;-144.99;79.40;52276.88;5005985;28;19973;-70
2023/09/20 12:46:24;;;;;;;;;;;;;;;-144.99;78.45;52244.28;5006635;28;19947;-73
2023/09/20 12:48:51;;;;;;;;;;;;;;;-144.99;77.78;52256.50;4998458;28;19962;-71
2023/09/20 12:51:17;;;;;;;;;;;;;;;-144.99;76.67;52089.38;5006152;28;19943;-71
2023/09/20 12:53:44;;;;;;;;;;;;;;;-144.99;75.38;52211.66;5005449;28;19946;-71
2023/09/20 12:56:11;;;;;;;;;;;;;;;-144.99;73.82;52240.19;5003116;28;19992;-71
2023/09/20 12:58:38;;;;;;;;;;;;;;;-144.99;73.98;52234.09;5004456;28;20324;-73
2023/09/20 13:01:07;;;;;;;;;;;;;;;-144.99;74.38;52205.53;5006752;28;19996;-74
2023/09/20 13:03:33;;;;;;;;;;;;;;;-144.99;74.75;52211.66;5006185;28;19953;-70